Time;durP1;ratioP1;P1;durP2;ratioP2;P2;SDS_P1;SDS_P2;PMS_P1;PMS_P2;Temp;Humidity;BMP_temperature;BMP_pressure;BME280_temperature;BME280_humidity;BME280_pressure;Samples;Min_cycle;Max_cycle;Signal;HPM_P1;HPM_P2
2021/03/30 00:00:13;;;;;;;12.98;5.75;;;;;;;8.41;81.88;103074.94;4925842;29;20070;-78
2021/03/30 00:02:38;;;;;;;7.03;4.82;;;;;;;8.26;82.76;103075.78;4920933;29;20047;-79
2021/03/30 00:05:04;;;;;;;13.68;5.25;;;;;;;8.20;82.07;103074.00;4911017;29;20040;-78
2021/03/30 00:07:30;;;;;;;14.23;5.90;;;;;;;8.08;83.05;103071.34;4926923;29;20088;-78
2021/03/30 00:09:55;;;;;;;11.23;5.30;;;;;;;7.98;83.84;103069.56;4923013;29;20035;-80
2021/03/30 00:12:21;;;;;;;15.90;6.03;;;;;;;7.85;86.15;103073.97;4929038;29;20032;-81
2021/03/30 00:14:46;;;;;;;10.63;6.30;;;;;;;7.73;88.54;103079.16;4933452;29;20067;-78
2021/03/30 00:17:12;;;;;;;13.55;5.55;;;;;;;7.68;87.79;103071.28;4917126;29;20035;-79
2021/03/30 00:19:37;;;;;;;11.48;5.32;;;;;;;7.90;86.05;103073.97;4914693;29;20028;-81
2021/03/30 00:22:02;;;;;;;15.82;5.80;;;;;;;7.91;86.14;103066.06;4931708;29;20063;-79
2021/03/30 00:24:28;;;;;;;13.60;5.47;;;;;;;7.96;85.14;103066.06;4929020;29;20063;-79
2021/03/30 00:26:53;;;;;;;11.90;5.63;;;;;;;8.24;83.08;103073.16;4929599;29;20028;-81
2021/03/30 00:29:18;;;;;;;12.15;5.35;;;;;;;8.31;83.55;103069.63;4925768;29;20033;-81
2021/03/30 00:31:44;;;;;;;11.95;5.70;;;;;;;8.33;82.25;103061.72;4927391;29;20030;-81
2021/03/30 00:34:09;;;;;;;11.93;5.85;;;;;;;8.02;83.82;103058.19;4928871;29;20042;-80
2021/03/30 00:36:35;;;;;;;13.02;5.88;;;;;;;7.85;86.06;103057.28;4924725;29;20032;-81
2021/03/30 00:39:00;;;;;;;15.55;6.40;;;;;;;7.77;87.10;103050.22;4927243;29;20153;-80
2021/03/30 00:41:25;;;;;;;19.52;7.20;;;;;;;7.62;87.74;103049.31;4928052;29;20060;-81
2021/03/30 00:43:51;;;;;;;12.27;6.00;;;;;;;7.31;93.10;103051.84;4923351;29;20087;-84
2021/03/30 00:46:18;;;;;;;16.17;6.07;;;;;;;7.28;94.15;103062.38;4910162;29;20039;-82
2021/03/30 00:48:48;;;;;;;15.63;6.32;;;;;;;7.29;96.85;103060.63;4915874;29;20144;-82
2021/03/30 00:51:16;;;;;;;16.08;6.35;;;;;;;7.40;100.00;103058.91;4931017;29;20036;-81
2021/03/30 00:53:41;;;;;;;15.65;6.35;;;;;;;7.21;100.00;103061.44;4932994;29;20027;-81
2021/03/30 00:56:07;;;;;;;14.93;5.88;;;;;;;7.15;100.00;103053.53;4922708;29;20036;-80
2021/03/30 00:58:32;;;;;;;13.80;6.50;;;;;;;7.15;100.00;103065.78;4924875;29;20052;-81
2021/03/30 01:00:57;;;;;;;15.90;6.57;;;;;;;7.11;100.00;103059.63;4925013;29;20060;-82
2021/03/30 01:03:23;;;;;;;24.63;7.10;;;;;;;7.09;100.00;103063.13;4927702;29;20051;-83
2021/03/30 01:05:48;;;;;;;14.23;6.82;;;;;;;7.14;100.00;103056.16;4929292;29;20035;-82
2021/03/30 01:08:54;;;;;;;16.63;6.43;;;;;;;7.15;100.00;103052.66;4921375;29;20028;-82
2021/03/30 01:11:32;;;;;;;14.23;6.63;;;;;;;7.17;100.00;103053.53;4918156;29;20125;-81
2021/03/30 01:14:25;;;;;;;13.23;6.47;;;;;;;7.19;100.00;103052.66;4922994;29;20035;-81
2021/03/30 01:17:05;;;;;;;18.13;7.25;;;;;;;6.98;100.00;103053.44;4923283;29;20032;-81
2021/03/30 01:19:52;;;;;;;12.52;7.03;;;;;;;6.99;100.00;103052.56;4919562;29;20083;-81
2021/03/30 01:22:49;;;;;;;21.83;7.93;;;;;;;6.88;100.00;103049.00;4921835;29;20024;-82
2021/03/30 01:25:16;;;;;;;14.20;8.18;;;;;;;6.94;100.00;103049.03;4924276;29;20028;-81
2021/03/30 01:27:50;;;;;;;22.52;9.00;;;;;;;6.98;100.00;103044.69;4923774;29;20031;-82
2021/03/30 01:30:18;;;;;;;14.32;8.95;;;;;;;7.03;100.00;103045.59;4920648;29;20028;-81
2021/03/30 01:32:53;;;;;;;16.50;8.10;;;;;;;7.03;100.00;103052.56;4923660;29;20020;-81
2021/03/30 01:35:23;;;;;;;12.30;8.13;;;;;;;7.10;100.00;103050.00;4924076;29;20035;-81
2021/03/30 01:37:50;;;;;;;19.85;7.68;;;;;;;6.90;100.00;103051.63;4919343;29;20035;-81
2021/03/30 01:40:22;;;;;;;11.88;7.35;;;;;;;6.82;100.00;103041.06;4921521;29;20856;-80
2021/03/30 01:42:49;;;;;;;15.77;8.60;;;;;;;6.72;100.00;103048.00;4911821;29;20060;-80
2021/03/30 01:45:17;;;;;;;17.42;8.13;;;;;;;6.68;100.00;103046.25;4910371;29;20063;-80
2021/03/30 01:47:44;;;;;;;16.55;8.68;;;;;;;6.72;100.00;103053.25;4917204;29;20028;-81
2021/03/30 01:50:13;;;;;;;18.17;8.00;;;;;;;6.74;100.00;103043.66;4923897;29;20031;-81
2021/03/30 01:52:40;;;;;;;16.10;8.57;;;;;;;6.69;100.00;103048.00;4911611;29;20091;-81
2021/03/30 01:55:09;;;;;;;13.48;7.55;;;;;;;6.72;100.00;103049.75;4912017;29;20032;-81
2021/03/30 01:57:37;;;;;;;15.05;7.75;;;;;;;6.57;100.00;103053.16;4915117;29;20045;-80
2021/03/30 02:00:07;;;;;;;13.95;7.68;;;;;;;6.48;100.00;103050.47;4924169;29;20032;-82
2021/03/30 02:02:32;;;;;;;18.52;8.38;;;;;;;6.54;100.00;103049.66;4924294;29;20474;-81
2021/03/30 02:05:00;;;;;;;15.52;7.88;;;;;;;6.51;100.00;103047.84;4932186;29;20064;-81
2021/03/30 02:07:28;;;;;;;14.45;8.43;;;;;;;6.59;100.00;103042.66;4917864;29;20028;-81
2021/03/30 02:09:58;;;;;;;10.75;7.43;;;;;;;6.56;100.00;103054.03;4918138;29;20042;-82
2021/03/30 02:12:30;;;;;;;22.35;8.38;;;;;;;6.49;100.00;103049.59;4925378;29;20084;-82
2021/03/30 02:14:55;;;;;;;14.43;7.93;;;;;;;6.49;100.00;103046.97;4929692;29;20067;-82
2021/03/30 02:17:46;;;;;;;20.77;9.48;;;;;;;6.47;100.00;103048.69;4926363;29;20036;-82
2021/03/30 02:20:13;;;;;;;18.10;8.02;;;;;;;6.46;100.00;103053.06;4925596;29;20063;-82
2021/03/30 02:22:54;;;;;;;16.85;7.93;;;;;;;6.49;100.00;103046.97;4928194;29;20032;-82
2021/03/30 02:25:21;;;;;;;20.98;9.85;;;;;;;6.25;100.00;103046.78;4931067;29;20083;-80
2021/03/30 02:27:50;;;;;;;17.35;7.88;;;;;;;6.19;100.00;103050.22;4927057;29;20053;-80
2021/03/30 02:30:17;;;;;;;20.52;9.40;;;;;;;6.19;100.00;103039.72;4921488;29;20043;-80
2021/03/30 02:32:45;;;;;;;16.90;9.45;;;;;;;6.13;100.00;103042.31;4916728;29;20028;-80
2021/03/30 02:35:12;;;;;;;18.48;8.80;;;;;;;6.26;100.00;103045.91;4927137;29;20041;-80
2021/03/30 02:37:38;;;;;;;22.33;9.75;;;;;;;6.13;100.00;103040.56;4923076;29;20028;-81
2021/03/30 02:40:06;;;;;;;14.48;9.60;;;;;;;6.01;100.00;103045.66;4924330;29;20055;-82
2021/03/30 02:42:33;;;;;;;15.30;9.02;;;;;;;6.04;100.00;103045.72;4910260;29;20040;-81
2021/03/30 02:45:01;;;;;;;12.85;8.82;;;;;;;5.92;100.00;103042.94;4906352;29;20498;-82
2021/03/30 02:47:26;;;;;;;21.65;9.23;;;;;;;5.92;100.00;103041.25;4917458;29;20048;-82
2021/03/30 02:49:53;;;;;;;20.48;8.68;;;;;;;5.81;100.00;103042.81;4922304;29;20036;-81
2021/03/30 02:52:20;;;;;;;14.55;8.48;;;;;;;5.81;100.00;103036.69;4925901;29;20059;-81
2021/03/30 02:54:47;;;;;;;18.92;8.75;;;;;;;5.70;100.00;103047.06;4907334;29;20087;-80
2021/03/30 02:57:13;;;;;;;16.23;8.38;;;;;;;5.73;100.00;103049.75;4928139;29;20044;-81
2021/03/30 02:59:40;;;;;;;15.15;9.43;;;;;;;5.70;100.00;103047.94;4915641;29;20119;-80
2021/03/30 03:02:06;;;;;;;20.70;9.30;;;;;;;5.52;100.00;103046.84;4920887;29;20036;-81
2021/03/30 03:04:32;;;;;;;16.58;9.07;;;;;;;5.45;100.00;103038.94;4924195;29;20035;-80
2021/03/30 03:07:00;;;;;;;15.82;9.32;;;;;;;5.39;100.00;103054.59;4917347;29;20032;-80
2021/03/30 03:09:26;;;;;;;16.05;10.00;;;;;;;5.45;100.00;103052.03;4929575;29;20405;-81
2021/03/30 03:11:52;;;;;;;15.25;8.05;;;;;;;5.45;100.00;103061.66;4908451;29;20115;-80
2021/03/30 03:14:20;;;;;;;18.70;8.57;;;;;;;5.41;100.00;103050.22;4919828;29;20051;-80
2021/03/30 03:16:46;;;;;;;21.52;9.20;;;;;;;5.61;100.00;103057.47;4925932;29;20028;-80
2021/03/30 03:19:14;;;;;;;18.88;8.63;;;;;;;5.51;100.00;103058.22;4909230;29;20031;-80
2021/03/30 03:21:41;;;;;;;19.05;9.30;;;;;;;5.43;100.00;103056.41;4910725;29;20099;-80
2021/03/30 03:24:11;;;;;;;17.13;9.02;;;;;;;5.44;100.00;103054.66;4922180;29;20042;-80
2021/03/30 03:26:38;;;;;;;13.93;8.43;;;;;;;5.37;100.00;103052.81;4916130;29;20055;-81
2021/03/30 03:29:19;;;;;;;12.60;8.50;;;;;;;5.45;100.00;103059.03;4917775;29;20032;-80
2021/03/30 03:31:46;;;;;;;20.30;8.90;;;;;;;5.38;100.00;103057.22;4920709;29;20060;-82
2021/03/30 03:34:12;;;;;;;19.77;9.18;;;;;;;5.28;100.00;103068.44;4925307;29;20078;-81
2021/03/30 03:36:43;;;;;;;22.00;10.93;;;;;;;5.17;100.00;103074.44;4905943;29;20032;-80
2021/03/30 03:39:15;;;;;;;20.73;9.77;;;;;;;5.07;100.00;103074.25;4920321;29;20039;-81
2021/03/30 03:41:42;;;;;;;23.75;9.93;;;;;;;4.99;100.00;103068.03;4927463;29;20048;-83
2021/03/30 03:44:08;;;;;;;23.88;11.02;;;;;;;4.92;100.00;103075.81;4935661;29;20036;-81
2021/03/30 03:46:34;;;;;;;22.35;11.70;;;;;;;4.92;100.00;103069.69;4926002;29;20064;-80
2021/03/30 03:48:59;;;;;;;24.77;11.85;;;;;;;4.92;100.00;103074.94;4923844;29;20043;-81
2021/03/30 03:51:28;;;;;;;22.00;10.38;;;;;;;4.94;100.00;103071.47;4927233;29;20043;-82
2021/03/30 03:53:55;;;;;;;17.60;9.63;;;;;;;4.98;100.00;103074.16;4914876;29;20052;-81
2021/03/30 03:56:30;;;;;;;19.10;10.50;;;;;;;5.15;100.00;103070.00;4918312;29;20111;-81
2021/03/30 03:59:02;;;;;;;21.50;11.73;;;;;;;5.12;100.00;103064.72;4909892;29;20044;-80
2021/03/30 04:01:43;;;;;;;22.23;12.07;;;;;;;5.07;100.00;103066.38;4908007;29;20136;-81
2021/03/30 04:04:24;;;;;;;22.30;11.40;;;;;;;5.12;100.00;103073.47;4908981;29;20028;-81
2021/03/30 04:06:57;;;;;;;21.88;12.00;;;;;;;5.16;100.00;103064.78;4899271;29;20095;-80
2021/03/30 04:09:25;;;;;;;21.13;12.10;;;;;;;5.08;100.00;103062.94;4914864;29;20032;-80
2021/03/30 04:11:53;;;;;;;24.70;12.48;;;;;;;5.08;100.00;103076.03;4910852;29;20036;-81
2021/03/30 04:14:19;;;;;;;32.67;14.48;;;;;;;5.22;100.00;103073.59;4914064;29;20065;-82
2021/03/30 04:16:45;;;;;;;24.63;14.20;;;;;;;5.20;100.00;103065.69;4904906;29;20032;-82
2021/03/30 04:19:11;;;;;;;43.53;15.57;;;;;;;5.36;100.00;103065.03;4911012;29;20037;-80
2021/03/30 04:21:38;;;;;;;29.90;13.13;;;;;;;5.26;100.00;103062.28;4903097;29;20383;-80
2021/03/30 04:24:04;;;;;;;20.58;12.52;;;;;;;5.17;100.00;103070.91;4908945;29;20044;-80
2021/03/30 04:26:29;;;;;;;23.80;12.48;;;;;;;5.29;100.00;103068.44;4890748;29;20029;-80
2021/03/30 04:28:54;;;;;;;25.45;13.38;;;;;;;5.20;100.00;103065.69;4908724;29;20028;-80
2021/03/30 04:31:20;;;;;;;26.13;13.55;;;;;;;5.25;100.00;103069.28;4885442;29;20037;-81
2021/03/30 04:33:45;;;;;;;24.48;12.77;;;;;;;5.15;100.00;103067.38;4884910;29;20032;-81
2021/03/30 04:36:11;;;;;;;24.85;12.70;;;;;;;5.09;100.00;103067.31;4899867;29;20039;-81
2021/03/30 04:38:37;;;;;;;25.35;14.02;;;;;;;4.94;100.00;103063.59;4907144;29;20029;-81
2021/03/30 04:41:04;;;;;;;28.27;15.23;;;;;;;4.99;100.00;103066.28;4904893;29;20096;-80
2021/03/30 04:43:29;;;;;;;23.73;13.55;;;;;;;5.05;100.00;103069.00;4906434;29;20027;-81
2021/03/30 04:45:54;;;;;;;35.17;16.45;;;;;;;5.28;100.00;103065.81;4905803;29;20446;-80
2021/03/30 04:48:20;;;;;;;32.13;15.60;;;;;;;5.28;100.00;103071.06;4906189;29;20797;-81
2021/03/30 04:50:45;;;;;;;34.28;16.83;;;;;;;5.30;100.00;103070.22;4908934;29;20068;-82
2021/03/30 04:53:12;;;;;;;31.88;15.85;;;;;;;5.36;100.00;103064.16;4908669;29;20039;-82
2021/03/30 04:55:38;;;;;;;28.70;15.27;;;;;;;5.30;100.00;103071.94;4901563;29;20032;-81
2021/03/30 04:58:03;;;;;;;38.80;15.68;;;;;;;5.27;100.00;103075.44;4918176;29;20537;-80
2021/03/30 05:00:29;;;;;;;25.25;14.38;;;;;;;5.23;100.00;103080.63;4926440;29;20046;-81
2021/03/30 05:02:54;;;;;;;36.10;17.73;;;;;;;5.20;100.00;103084.06;4923796;29;20076;-81
2021/03/30 05:05:20;;;;;;;31.25;15.50;;;;;;;5.16;100.00;103087.50;4918132;29;20051;-79
2021/03/30 05:07:45;;;;;;;32.30;15.85;;;;;;;5.14;100.00;103084.84;4925670;29;20038;-80
2021/03/30 05:10:12;;;;;;;31.70;15.27;;;;;;;4.99;100.00;103083.75;4925297;29;20051;-80
2021/03/30 05:12:38;;;;;;;37.08;18.70;;;;;;;5.20;100.00;103084.06;4913176;29;20027;-80
2021/03/30 05:15:04;;;;;;;39.42;17.20;;;;;;;5.23;100.00;103094.59;4924977;29;20032;-80
2021/03/30 05:17:29;;;;;;;44.70;19.15;;;;;;;5.25;100.00;103086.75;4908746;29;20054;-80
2021/03/30 05:19:55;;;;;;;38.03;19.98;;;;;;;5.19;100.00;103087.53;4922604;29;20020;-78
2021/03/30 05:22:20;;;;;;;41.70;15.45;;;;;;;5.21;100.00;103096.31;4918482;29;20451;-81
2021/03/30 05:24:45;;;;;;;26.83;15.32;;;;;;;5.22;100.00;103089.31;4924457;29;20862;-80
2021/03/30 05:27:11;;;;;;;36.28;16.13;;;;;;;5.13;100.00;103101.44;4920922;29;20036;-80
2021/03/30 05:29:45;;;;;;;29.67;14.20;;;;;;;5.06;100.00;103101.31;4914947;29;20032;-80
2021/03/30 05:32:16;;;;;;;29.58;15.57;;;;;;;4.96;100.00;103105.56;4904262;29;20047;-80
2021/03/30 05:34:43;;;;;;;32.75;16.23;;;;;;;4.99;100.00;103099.50;4900052;29;20059;-80
2021/03/30 05:37:08;;;;;;;32.60;16.27;;;;;;;4.84;100.00;103094.91;4911977;29;20063;-80
2021/03/30 05:39:34;;;;;;;37.60;16.90;;;;;;;4.92;100.00;103093.28;4912413;29;20099;-81
2021/03/30 05:41:59;;;;;;;38.83;17.92;;;;;;;5.02;100.00;103104.75;4913157;29;20615;-81
2021/03/30 05:44:27;;;;;;;35.17;17.15;;;;;;;4.98;100.00;103113.47;4895807;29;20042;-81
2021/03/30 05:47:35;;;;;;;34.03;18.58;;;;;;;5.18;100.00;103106.75;4914455;29;20088;-81
2021/03/30 05:49:42;;;;;;;31.77;17.88;;;;;;;5.25;100.00;103112.97;4902735;29;20059;-80
2021/03/30 05:52:26;;;;;;;32.30;18.88;;;;;;;5.29;100.00;103117.41;4901156;29;20132;-81
2021/03/30 05:54:55;;;;;;;38.42;17.95;;;;;;;5.30;100.00;103117.41;4917119;29;20031;-80
2021/03/30 05:57:26;;;;;;;30.33;16.58;;;;;;;5.31;100.00;103113.03;4914526;29;20048;-81
2021/03/30 05:59:55;;;;;;;31.23;16.60;;;;;;;5.38;100.00;103122.78;4917018;29;20040;-81
2021/03/30 06:02:28;;;;;;;33.03;16.23;;;;;;;5.41;100.00;103115.81;4896375;29;20036;-81
2021/03/30 06:04:55;;;;;;;29.85;16.73;;;;;;;5.45;100.00;103122.84;4917584;29;20048;-81
2021/03/30 06:07:20;;;;;;;33.90;16.60;;;;;;;5.58;100.00;103133.53;4916828;29;20510;-81
2021/03/30 06:09:46;;;;;;;31.40;16.35;;;;;;;5.64;100.00;103125.72;4888255;29;20032;-81
2021/03/30 06:12:16;;;;;;;37.42;16.80;;;;;;;5.63;100.00;103135.34;4901941;29;20036;-80
2021/03/30 06:14:44;;;;;;;37.67;17.00;;;;;;;5.70;100.00;103134.53;4851166;29;20043;-80
2021/03/30 06:17:14;;;;;;;35.33;17.17;;;;;;;5.91;100.00;103126.06;4907795;29;20032;-81
2021/03/30 06:19:52;;;;;;;40.90;17.88;;;;;;;5.92;100.00;103127.84;4907654;29;20183;-80
2021/03/30 06:22:18;;;;;;;37.58;18.55;;;;;;;6.13;100.00;103131.56;4909495;29;20340;-80
2021/03/30 06:24:47;;;;;;;38.35;18.25;;;;;;;6.31;100.00;103125.59;4897182;29;20029;-82
2021/03/30 06:27:20;;;;;;;45.28;19.13;;;;;;;6.59;100.00;103129.38;4903580;29;20067;-79
2021/03/30 06:29:45;;;;;;;44.15;21.00;;;;;;;6.76;100.00;103133.00;4909226;29;20031;-81
2021/03/30 06:32:14;;;;;;;44.35;20.80;;;;;;;6.92;100.00;103134.88;4910346;29;20039;-80
2021/03/30 06:34:42;;;;;;;38.78;20.05;;;;;;;7.08;100.00;103133.25;4911995;29;20039;-80
2021/03/30 06:37:27;;;;;;;49.67;22.15;;;;;;;7.26;100.00;103128.09;4913827;29;20039;-80
2021/03/30 06:39:54;;;;;;;44.25;21.30;;;;;;;7.36;100.00;103129.03;4910743;29;20055;-81
2021/03/30 06:42:44;;;;;;;39.33;20.13;;;;;;;7.44;100.00;103132.59;4907647;29;20063;-80
2021/03/30 06:45:22;;;;;;;43.63;21.15;;;;;;;7.52;100.00;103122.97;4912127;29;20040;-80
2021/03/30 06:47:49;;;;;;;40.47;21.73;;;;;;;7.66;100.00;103123.03;4910811;29;20099;-82
2021/03/30 06:50:40;;;;;;;42.20;23.52;;;;;;;7.75;100.00;103119.56;4915288;29;20036;-81
2021/03/30 06:53:11;;;;;;;43.92;20.90;;;;;;;7.90;100.00;103127.50;4895109;29;20039;-81
2021/03/30 06:55:47;;;;;;;45.22;22.70;;;;;;;8.05;100.00;103132.81;4920737;29;20059;-81
2021/03/30 06:58:13;;;;;;;56.92;23.98;;;;;;;8.25;100.00;103131.97;4919036;29;20099;-81
2021/03/30 07:00:39;;;;;;;52.15;24.58;;;;;;;8.46;100.00;103133.78;4901699;29;20164;-82
2021/03/30 07:03:11;;;;;;;41.90;22.05;;;;;;;8.51;100.00;103129.41;4913963;29;20458;-80
2021/03/30 07:05:52;;;;;;;57.65;24.42;;;;;;;8.71;100.00;103148.75;4911299;29;20040;-82
2021/03/30 07:08:41;;;;;;;50.47;23.40;;;;;;;8.86;100.00;103144.34;4902163;29;20028;-83
2021/03/30 07:11:53;;;;;;;48.20;23.05;;;;;;;9.06;100.00;103148.72;4916191;29;20028;-83
2021/03/30 07:15:23;;;;;;;51.30;24.55;;;;;;;9.24;100.00;103146.94;4915380;29;20138;-81
2021/03/30 07:18:41;;;;;;;46.47;23.33;;;;;;;9.35;100.00;103155.72;5004227;23;20044;-81
2021/03/30 07:21:28;;;;;;;42.58;22.25;;;;;;;9.43;100.00;103158.31;4909166;29;20491;-81
2021/03/30 07:25:17;;;;;;;39.28;22.45;;;;;;;9.68;100.00;103152.06;4914382;29;20095;-82
2021/03/30 07:28:42;;;;;;;49.47;24.35;;;;;;;9.90;100.00;103155.50;4760537;30;20076;-83
2021/03/30 07:31:11;;;;;;;48.00;23.30;;;;;;;10.07;100.00;103158.03;4761407;30;20039;-81
2021/03/30 07:33:48;;;;;;;56.55;24.95;;;;;;;10.14;100.00;103154.50;4745196;30;20040;-81
2021/03/30 07:36:19;;;;;;;47.30;25.48;;;;;;;10.27;100.00;103155.31;4757866;30;20048;-79
2021/03/30 07:38:49;;;;;;;50.38;25.05;;;;;;;10.29;100.00;103161.47;4759246;30;20143;-81
2021/03/30 07:41:19;;;;;;;50.70;23.58;;;;;;;10.38;100.00;103164.06;4751046;30;20651;-80
2021/03/30 07:43:45;;;;;;;54.63;25.80;;;;;;;10.46;100.00;103159.59;4753342;30;20078;-80
2021/03/30 07:46:10;;;;;;;45.50;23.58;;;;;;;10.57;100.00;103156.88;4756634;30;20116;-80
2021/03/30 07:48:39;;;;;;;48.85;23.02;;;;;;;10.68;100.00;103162.94;4746566;30;20100;-81
2021/03/30 07:51:14;;;;;;;48.80;24.50;;;;;;;10.88;100.00;103157.50;4746651;30;20078;-80
2021/03/30 07:53:54;;;;;;;49.03;25.80;;;;;;;10.95;100.00;103174.22;4756762;30;20039;-81
2021/03/30 07:56:22;;;;;;;48.35;24.83;;;;;;;11.02;100.00;103170.59;4758167;30;20234;-79
2021/03/30 07:58:48;;;;;;;48.13;25.17;;;;;;;11.21;100.00;103166.88;4797866;29;20098;-79
2021/03/30 08:01:15;;;;;;;47.38;24.23;;;;;;;11.30;100.00;103160.63;4858955;29;20091;-79
2021/03/30 08:03:45;;;;;;;49.00;23.50;;;;;;;11.44;100.00;103163.09;4881608;29;20200;-81
2021/03/30 08:06:17;;;;;;;48.50;23.48;;;;;;;11.66;100.00;103167.28;4871332;29;20080;-81
2021/03/30 08:09:12;;;;;;;44.55;24.13;;;;;;;11.82;100.00;103165.34;4886375;29;20095;-82
2021/03/30 08:11:38;;;;;;;53.45;26.13;;;;;;;11.93;100.00;103164.28;4884764;29;20049;-81
2021/03/30 08:14:04;;;;;;;55.65;26.88;;;;;;;11.91;100.00;103151.97;4886867;29;20041;-80
2021/03/30 08:16:29;;;;;;;49.53;25.52;;;;;;;12.03;100.00;103161.53;4876780;29;20497;-78
2021/03/30 08:18:58;;;;;;;52.88;26.70;;;;;;;12.19;100.00;103169.22;4881041;29;20060;-79
2021/03/30 08:21:24;;;;;;;53.60;26.42;;;;;;;12.41;100.00;103156.56;4885615;29;20647;-79
2021/03/30 08:23:52;;;;;;;47.85;25.20;;;;;;;12.58;100.00;103166.03;4896330;29;20044;-80
2021/03/30 08:26:28;;;;;;;46.33;23.73;;;;;;;12.53;100.00;103157.25;4878536;29;20052;-80
2021/03/30 08:29:09;;;;;;;45.38;25.77;;;;;;;12.71;100.00;103159.63;4875489;29;20051;-82
2021/03/30 08:31:51;;;;;;;43.47;23.27;;;;;;;12.75;100.00;103164.00;4884908;29;20041;-81
2021/03/30 08:34:26;;;;;;;43.53;23.13;;;;;;;13.06;100.00;103169.63;4863189;29;20048;-81
2021/03/30 08:37:08;;;;;;;52.63;22.80;;;;;;;13.35;100.00;103170.88;4878403;29;20066;-81
2021/03/30 08:40:27;;;;;;;45.20;24.23;;;;;;;13.54;100.00;103168.75;4877947;29;20423;-83
2021/03/30 08:42:57;;;;;;;45.22;23.67;;;;;;;13.85;100.00;103161.88;4864400;29;20039;-81
2021/03/30 08:45:25;;;;;;;52.58;26.20;;;;;;;14.12;100.00;103167.53;4876369;29;20182;-83
2021/03/30 08:47:50;;;;;;;42.60;21.40;;;;;;;14.28;100.00;103165.41;4862909;29;20036;-81
2021/03/30 08:50:25;;;;;;;45.83;22.92;;;;;;;14.43;100.00;103163.25;4878628;29;20043;-83
2021/03/30 08:52:52;;;;;;;43.42;21.08;;;;;;;14.47;100.00;103164.06;4889324;29;20088;-82
2021/03/30 08:55:29;;;;;;;42.90;23.48;;;;;;;14.29;100.00;103172.47;4871171;29;20036;-81
2021/03/30 08:57:57;;;;;;;47.85;22.67;;;;;;;14.41;100.00;103177.50;4878400;29;20150;-81
2021/03/30 09:00:23;;;;;;;52.20;24.52;;;;;;;14.62;100.00;103170.84;4878331;29;20037;-80
2021/03/30 09:03:03;;;;;;;45.22;23.20;;;;;;;14.87;100.00;103165.78;4879180;29;20033;-81
2021/03/30 09:05:35;;;;;;;50.55;24.38;;;;;;;15.13;100.00;103173.06;4862093;29;20045;-81
2021/03/30 09:08:01;;;;;;;48.40;25.70;;;;;;;15.39;100.00;103173.22;4882407;29;20033;-80
2021/03/30 09:10:26;;;;;;;46.47;24.52;;;;;;;15.62;100.00;103171.72;4882530;29;20044;-81
2021/03/30 09:13:08;;;;;;;51.25;25.13;;;;;;;15.76;100.00;103172.22;4867754;29;20025;-81
2021/03/30 09:15:33;;;;;;;46.00;24.90;;;;;;;15.75;100.00;103174.00;4884980;29;20048;-80
2021/03/30 09:18:00;;;;;;;50.83;26.40;;;;;;;16.04;100.00;103170.47;4867826;29;20053;-80
2021/03/30 09:20:32;;;;;;;61.72;26.52;;;;;;;16.33;100.00;103182.03;4878442;29;20064;-79
2021/03/30 09:22:59;;;;;;;51.88;28.00;;;;;;;16.32;100.00;103177.63;4874150;29;20047;-80
2021/03/30 09:25:40;;;;;;;58.60;27.92;;;;;;;16.63;100.00;103174.84;4875909;29;20034;-80
2021/03/30 09:28:51;;;;;;;51.63;27.92;;;;;;;16.62;100.00;103180.22;4873081;29;20060;-85
2021/03/30 09:31:16;;;;;;;58.13;29.42;;;;;;;16.63;100.00;103182.84;4877740;29;20546;-82
2021/03/30 09:33:42;;;;;;;58.85;28.67;;;;;;;17.11;100.00;103176.78;4876910;29;20028;-82
2021/03/30 09:36:12;;;;;;;54.45;28.38;;;;;;;16.97;100.00;103177.28;4852800;29;20040;-82
2021/03/30 09:38:52;;;;;;;52.63;28.70;;;;;;;17.29;100.00;103178.81;4880126;29;20128;-81
2021/03/30 09:58:38;;;;;;;56.20;30.92;;;;;;;18.62;62.64;103156.75;6101736;22;2524678;-81
2021/03/30 10:01:04;;;;;;;57.63;32.00;;;;;;;18.68;64.64;103158.34;6194118;23;20020;-81
2021/03/30 10:04:04;;;;;;;60.38;31.27;;;;;;;18.55;63.88;103152.59;6169402;23;20012;-82
2021/03/30 10:06:44;;;;;;;56.47;31.65;;;;;;;18.91;62.92;103146.66;6196123;23;20515;-82
2021/03/30 10:09:25;;;;;;;48.58;29.67;;;;;;;18.65;62.92;103143.25;6199310;23;20067;-82
2021/03/30 10:12:19;;;;;;;53.53;29.75;;;;;;;18.88;62.19;103137.81;6168411;23;20087;-81
2021/03/30 10:14:47;;;;;;;52.80;29.75;;;;;;;19.23;59.30;103139.88;6165650;23;20011;-81
2021/03/30 10:17:33;;;;;;;53.72;30.83;;;;;;;20.02;54.25;103146.09;6192994;23;20001;-81
2021/03/30 10:20:01;;;;;;;61.50;30.47;;;;;;;19.79;51.07;103136.47;6194197;23;20015;-81
2021/03/30 10:22:54;;;;;;;60.25;31.63;;;;;;;20.61;47.17;103139.63;6167186;23;20255;-80
2021/03/30 10:25:29;;;;;;;60.47;30.08;;;;;;;21.23;42.38;103132.78;6072444;23;20038;-81
2021/03/30 10:28:01;;;;;;;58.87;30.93;;;;;;;22.31;39.27;103125.06;6073636;23;20011;-81
2021/03/30 10:30:39;;;;;;;52.05;27.42;;;;;;;23.59;36.11;103119.06;6070941;23;20226;-81
2021/03/30 10:33:10;;;;;;;52.08;28.55;;;;;;;23.04;35.70;103120.69;6072683;23;20054;-82
2021/03/30 10:35:52;;;;;;;48.38;28.08;;;;;;;24.74;33.79;103117.75;6070250;23;20508;-82
2021/03/30 10:38:17;;;;;;;41.13;23.75;;;;;;;24.71;31.54;103121.56;6046467;23;20045;-81
2021/03/30 10:40:42;;;;;;;40.50;24.00;;;;;;;24.97;31.29;103117.06;6065190;23;20451;-80
2021/03/30 10:43:21;;;;;;;46.77;26.30;;;;;;;23.97;32.73;103106.69;6044961;23;20011;-79
2021/03/30 10:45:47;;;;;;;49.38;26.70;;;;;;;25.16;31.08;103113.09;6069611;23;20225;-79
2021/03/30 10:48:13;;;;;;;41.13;24.73;;;;;;;25.09;30.48;103106.38;6068421;23;20022;-81
2021/03/30 10:50:39;;;;;;;43.30;26.55;;;;;;;25.70;29.83;103100.09;6068998;23;20676;-79
2021/03/30 10:53:05;;;;;;;36.63;20.65;;;;;;;23.92;30.08;103103.41;6067422;23;20010;-79
2021/03/30 10:55:31;;;;;;;47.38;24.17;;;;;;;24.62;31.32;103097.00;6066650;23;20014;-79
2021/03/30 10:57:56;;;;;;;32.83;19.00;;;;;;;25.10;29.06;103091.84;6023558;23;20019;-80
2021/03/30 11:00:21;;;;;;;31.48;19.75;;;;;;;24.08;30.69;103089.75;6033000;23;20574;-79
2021/03/30 11:02:47;;;;;;;40.40;22.10;;;;;;;25.41;29.74;103080.59;6096930;23;20032;-79
2021/03/30 11:05:38;;;;;;;34.88;20.90;;;;;;;24.42;31.30;103083.00;6152520;23;20017;-80
2021/03/30 11:08:06;;;;;;;38.15;20.98;;;;;;;26.47;28.71;103073.59;6126002;23;20096;-79
2021/03/30 11:10:34;;;;;;;31.25;18.55;;;;;;;26.10;27.98;103075.50;6152912;23;20040;-80
2021/03/30 11:12:59;;;;;;;22.92;14.02;;;;;;;27.27;26.10;103070.06;6153427;23;20005;-80
2021/03/30 11:15:40;;;;;;;23.92;14.77;;;;;;;25.79;27.64;103082.34;6125572;23;20109;-80
2021/03/30 11:18:05;;;;;;;18.40;11.43;;;;;;;24.82;27.71;103079.38;6157281;23;20088;-80
2021/03/30 11:20:30;;;;;;;20.70;12.55;;;;;;;26.68;26.21;103064.78;6153200;23;20235;-80
2021/03/30 11:22:56;;;;;;;23.93;12.80;;;;;;;26.37;26.32;103069.84;6154977;23;20001;-80
2021/03/30 11:25:23;;;;;;;22.60;13.18;;;;;;;26.97;25.30;103068.78;6151134;23;20694;-81
2021/03/30 11:28:08;;;;;;;26.48;13.38;;;;;;;26.50;26.22;103061.63;6152982;23;20005;-79
2021/03/30 11:30:41;;;;;;;21.27;9.65;;;;;;;28.08;24.68;103055.22;6150672;23;20629;-80
2021/03/30 11:33:19;;;;;;;26.88;14.65;;;;;;;28.24;23.96;103058.38;6152623;23;20021;-81
2021/03/30 11:35:51;;;;;;;25.25;15.82;;;;;;;29.22;23.81;103060.75;6125685;23;20462;-80
2021/03/30 11:38:16;;;;;;;33.28;18.70;;;;;;;29.11;24.47;103049.94;6153164;23;20006;-80
2021/03/30 11:40:51;;;;;;;36.97;20.20;;;;;;;29.44;24.11;103047.91;6129392;23;20016;-81
2021/03/30 11:43:17;;;;;;;29.43;19.30;;;;;;;29.06;24.41;103058.50;6127659;23;20009;-79
2021/03/30 11:45:42;;;;;;;35.17;19.02;;;;;;;28.70;24.57;103057.13;6151862;23;20076;-80
2021/03/30 11:48:08;;;;;;;36.17;21.05;;;;;;;27.46;26.17;103045.88;6125970;23;19998;-80